Accueil
METAR-TAF:

METAR-TAF

Aéroports :

Concord, New Hampshire, États-Unis

latitude: 43-11-43N, longitude: 071-30-04W, altitude: 105 m

Observation

Le bulletin a été fait il y a 1 heure et 0 minutes, à 22:51 UTC
Vent 6 kt de sud/sud-est
Température 22°C
Humidité 73%
Pression 1024 hPa
Visibilité: 16.1 km
Quelques nuages à une hauteur de 4500 ft

METAR: KCON 152251Z AUTO 15006KT 10SM FEW045 22/17 A3023 RMK AO2 SLP235 T02220167

Heure: 19:51 (23:51 UTC)

Prévision

Le bulletin a été fait il y a 31 minutes, à 23:20 UTC
Prévision valable du 16 à 00 UTC au 16 à 24 UTC
Vent kt de nord
Visibilité: 10 km
Ciel clair
A partir de 16 à 0900 UTC
Vent kt de nord
Visibilité: 10 km
Nuages fragmentés à une hauteur de 3500 ft
A partir de 16 à 1500 UTC
Vent 6 kt de sud-est
Visibilité: 10 km
Ciel couvert à une hauteur de 5000 ft

TAF: KCON 152320Z 1600/1624 00000KT P6SM SKC FM160900 00000KT P6SM BKN035 FM161500 14006KT P6SM OVC050

Observations et prévisions météorologiques de plus de 4000 aéroports (messages METAR et TAF).

Les stations disponibles sont représentées par des disques jaunes et rouges sur la carte.

Passer la souris dessus pour voir le nom de la station.

Cliquer dessus pour voir les observations et prévisions météorologiques.

Pour changer de carte: cliquez sur les boutons verts avec une croix noire pour zoomer, sur le bouton vert avec un tiret pour effectuer un zoom arrière, ou sur les flèches vertes pour les cartes adjacentes.


METAR-TAF: